Time;durP1;ratioP1;P1;durP2;ratioP2;P2;SDS_P1;SDS_P2;PMS_P1;PMS_P2;Temp;Humidity;BMP_temperature;BMP_pressure;BME280_temperature;BME280_humidity;BME280_pressure;Samples;Min_cycle;Max_cycle;Signal;HPM_P1;HPM_P2
2022/11/27 00:00:56;;;;;;;15.93;6.97;;;;;;;3.29;100.00;102196.97;5039145;28;20670;-76
2022/11/27 00:03:22;;;;;;;12.50;6.47;;;;;;;3.29;100.00;102205.59;5054694;28;20302;-75
2022/11/27 00:05:54;;;;;;;14.50;6.90;;;;;;;3.28;100.00;102209.00;5053903;28;20200;-75
2022/11/27 00:08:24;;;;;;;14.13;7.23;;;;;;;3.31;100.00;102208.22;5053585;28;20245;-75
2022/11/27 00:10:50;;;;;;;15.87;7.20;;;;;;;3.32;100.00;102199.66;5051666;28;20283;-76
2022/11/27 00:13:17;;;;;;;15.00;6.83;;;;;;;3.31;100.00;102209.09;5038259;28;20233;-76
2022/11/27 00:15:43;;;;;;;11.90;6.77;;;;;;;3.30;100.00;102198.72;5035062;28;20540;-75
2022/11/27 00:18:10;;;;;;;14.40;7.10;;;;;;;3.28;100.00;102200.41;5051675;28;20183;-75
2022/11/27 00:20:36;;;;;;;12.20;6.50;;;;;;;3.24;100.00;102199.44;5049070;28;20210;-75
2022/11/27 00:23:03;;;;;;;19.30;6.80;;;;;;;3.20;100.00;102200.16;5030012;28;20235;-76
2022/11/27 00:25:31;;;;;;;13.93;7.23;;;;;;;3.19;100.00;102199.28;5031009;28;20205;-76
2022/11/27 00:27:57;;;;;;;12.97;7.07;;;;;;;3.19;100.00;102198.41;5047737;28;20211;-75
2022/11/27 00:30:23;;;;;;;11.90;6.67;;;;;;;3.19;100.00;102199.28;5039644;28;20211;-75
2022/11/27 00:32:50;;;;;;;12.43;7.10;;;;;;;3.21;100.00;102200.19;5049823;28;20625;-76
2022/11/27 00:35:16;;;;;;;12.67;7.70;;;;;;;3.20;100.00;102205.31;5050518;28;20196;-76
2022/11/27 00:37:43;;;;;;;10.73;6.57;;;;;;;3.20;100.00;102198.47;5035502;28;20207;-75
2022/11/27 00:40:10;;;;;;;11.60;7.43;;;;;;;3.19;100.00;102207.03;5033827;28;20217;-75
2022/11/27 00:42:38;;;;;;;13.60;6.60;;;;;;;3.18;100.00;102202.72;5052910;28;20210;-75
2022/11/27 00:45:04;;;;;;;15.47;7.33;;;;;;;3.21;100.00;102209.66;5052868;28;20199;-74
2022/11/27 00:47:31;;;;;;;18.93;7.63;;;;;;;3.21;100.00;102202.78;5032926;28;20223;-74
2022/11/27 00:49:57;;;;;;;11.97;6.93;;;;;;;3.21;100.00;102195.03;5052530;28;20214;-75
2022/11/27 00:52:24;;;;;;;14.73;7.50;;;;;;;3.22;100.00;102199.38;5036772;28;20286;-75
2022/11/27 00:54:50;;;;;;;12.73;7.37;;;;;;;3.22;100.00;102206.25;5051874;28;20237;-75
2022/11/27 00:57:16;;;;;;;17.10;8.10;;;;;;;3.22;100.00;102207.13;5052513;28;20203;-75
2022/11/27 00:59:44;;;;;;;12.13;7.13;;;;;;;3.23;100.00;102211.44;5052683;28;20210;-75
2022/11/27 01:02:11;;;;;;;14.90;7.77;;;;;;;3.25;100.00;102213.19;5052472;28;20642;-75
2022/11/27 01:04:37;;;;;;;14.67;7.17;;;;;;;3.27;100.00;102211.53;5052172;28;20214;-75
2022/11/27 01:07:03;;;;;;;13.47;7.77;;;;;;;3.27;100.00;102206.38;5036306;28;20207;-75
2022/11/27 01:09:30;;;;;;;11.80;6.80;;;;;;;3.29;100.00;102210.75;5051078;28;20618;-75
2022/11/27 01:11:56;;;;;;;13.60;7.27;;;;;;;3.32;100.00;102215.13;5038075;28;20334;-76
2022/11/27 01:14:22;;;;;;;10.73;7.43;;;;;;;3.32;100.00;102210.81;5038050;28;20227;-74
2022/11/27 01:16:50;;;;;;;12.20;7.17;;;;;;;3.35;100.00;102204.91;5034331;28;20218;-74
2022/11/27 01:19:17;;;;;;;14.87;8.30;;;;;;;3.39;100.00;102211.88;5052949;28;20196;-75
2022/11/27 01:21:43;;;;;;;14.07;8.10;;;;;;;3.42;100.00;102209.41;5041810;28;20207;-74
2022/11/27 01:24:12;;;;;;;15.90;7.47;;;;;;;3.44;100.00;102200.00;5031310;28;20233;-74
2022/11/27 01:26:38;;;;;;;12.87;6.97;;;;;;;3.47;100.00;102202.66;5049585;28;20202;-75
2022/11/27 01:29:05;;;;;;;17.07;7.77;;;;;;;3.48;100.00;102199.25;5050473;28;20221;-75
2022/11/27 01:31:33;;;;;;;17.53;8.00;;;;;;;3.50;100.00;102197.59;5036672;28;20217;-75
2022/11/27 01:34:03;;;;;;;11.83;7.50;;;;;;;3.52;100.00;102202.81;5051640;28;20356;-75
2022/11/27 01:36:30;;;;;;;13.43;7.40;;;;;;;3.54;100.00;102196.84;5035420;28;20207;-75
2022/11/27 01:38:57;;;;;;;18.90;8.27;;;;;;;3.53;100.00;102178.75;5047790;28;20568;-75
2022/11/27 01:41:27;;;;;;;19.60;8.60;;;;;;;3.54;100.00;102185.66;5033409;28;20207;-75
2022/11/27 01:43:56;;;;;;;14.03;7.53;;;;;;;3.54;100.00;102178.78;5052652;28;20298;-75
2022/11/27 01:46:29;;;;;;;15.90;8.07;;;;;;;3.54;100.00;102183.94;5037238;28;20587;-74
2022/11/27 01:49:04;;;;;;;14.03;8.10;;;;;;;3.52;100.00;102177.88;5045180;28;20221;-75
2022/11/27 01:51:31;;;;;;;15.73;8.17;;;;;;;3.50;100.00;102176.97;5057058;28;20191;-75
2022/11/27 01:53:57;;;;;;;13.67;8.60;;;;;;;3.47;100.00;102174.31;5053924;28;20290;-75
2022/11/27 01:56:26;;;;;;;17.20;8.00;;;;;;;3.47;100.00;102176.88;5037194;28;20199;-75
2022/11/27 01:58:52;;;;;;;14.50;7.97;;;;;;;3.47;100.00;102178.59;5049663;28;20225;-74
2022/11/27 02:01:19;;;;;;;17.57;8.67;;;;;;;3.44;100.00;102174.22;5046357;28;20203;-75
2022/11/27 02:03:45;;;;;;;18.13;8.20;;;;;;;3.42;100.00;102163.84;5027075;28;20227;-75
2022/11/27 02:06:13;;;;;;;16.77;7.40;;;;;;;3.42;100.00;102160.41;5046672;28;20197;-75
2022/11/27 02:08:41;;;;;;;16.17;8.53;;;;;;;3.41;100.00;102153.50;5047677;28;20257;-75
2022/11/27 02:11:13;;;;;;;14.10;8.13;;;;;;;3.39;100.00;102150.00;5035067;28;20199;-75
2022/11/27 02:13:45;;;;;;;13.90;8.13;;;;;;;3.36;100.00;102145.66;5047651;28;20786;-75
2022/11/27 02:16:19;;;;;;;12.97;7.90;;;;;;;3.35;100.00;102153.34;5049157;28;20195;-74
2022/11/27 02:18:57;;;;;;;15.03;9.20;;;;;;;3.32;100.00;102154.09;5049524;28;20186;-75
2022/11/27 02:21:37;;;;;;;15.23;9.30;;;;;;;3.32;100.00;102156.69;5028487;28;20203;-74
2022/11/27 02:24:24;;;;;;;12.50;8.70;;;;;;;3.31;100.00;102161.81;5026836;28;20234;-74
2022/11/27 02:27:27;;;;;;;18.07;9.10;;;;;;;3.32;100.00;102150.66;5035139;28;20639;-74
2022/11/27 02:30:05;;;;;;;19.77;9.20;;;;;;;3.28;100.00;102143.69;5043232;28;20234;-74
2022/11/27 02:32:39;;;;;;;21.53;9.13;;;;;;;3.23;100.00;102136.66;5047307;28;20761;-74
2022/11/27 02:38:09;;;;;;;17.07;8.87;;;;;;;3.06;100.00;102134.44;5033952;28;20258;-75
2022/11/27 02:40:39;;;;;;;18.80;9.07;;;;;;;2.94;100.00;102135.84;5046544;28;20195;-75
2022/11/27 02:43:10;;;;;;;16.77;8.77;;;;;;;2.87;100.00;102133.94;5047047;28;20223;-74
2022/11/27 02:45:42;;;;;;;22.03;8.70;;;;;;;2.82;100.00;102127.75;5051003;28;20217;-74
2022/11/27 02:48:10;;;;;;;16.77;8.27;;;;;;;2.75;100.00;102123.25;5058196;28;20228;-74
2022/11/27 02:50:39;;;;;;;17.50;8.43;;;;;;;2.67;100.00;102125.59;5049003;28;20264;-74
2022/11/27 02:53:10;;;;;;;13.10;8.47;;;;;;;2.62;100.00;102119.41;5033137;28;20216;-74
2022/11/27 02:55:39;;;;;;;16.23;8.17;;;;;;;2.51;100.00;102124.25;5051513;28;20227;-74
2022/11/27 02:58:10;;;;;;;15.77;8.83;;;;;;;2.43;100.00;102111.13;5050370;28;20561;-74
2022/11/27 03:00:39;;;;;;;17.10;8.23;;;;;;;2.36;100.00;102116.94;5040873;28;20470;-74
2022/11/27 03:03:10;;;;;;;14.67;8.83;;;;;;;2.30;100.00;102118.44;5049724;28;20625;-74
2022/11/27 03:05:40;;;;;;;13.60;7.83;;;;;;;2.20;100.00;102122.38;5030718;28;20298;-74
2022/11/27 03:08:09;;;;;;;16.87;8.63;;;;;;;2.09;100.00;102122.03;5035398;28;20199;-74
2022/11/27 03:10:46;;;;;;;13.63;7.83;;;;;;;2.00;100.00;102124.31;5046503;28;20295;-74
2022/11/27 03:13:12;;;;;;;18.20;8.00;;;;;;;1.94;100.00;102124.13;5034645;28;20210;-74
2022/11/27 03:15:48;;;;;;;15.70;7.57;;;;;;;1.89;100.00;102129.97;5049676;28;20211;-74
2022/11/27 03:18:22;;;;;;;19.13;8.97;;;;;;;1.87;100.00;102131.63;5031658;28;20643;-75
2022/11/27 03:20:54;;;;;;;14.20;8.00;;;;;;;1.85;100.00;102135.00;5049109;28;20199;-74
2022/11/27 03:23:21;;;;;;;15.50;8.10;;;;;;;1.82;100.00;102129.75;5037300;28;20235;-74
2022/11/27 03:25:47;;;;;;;14.20;8.43;;;;;;;1.80;100.00;102134.81;5032748;28;20202;-75
2022/11/27 03:28:15;;;;;;;13.37;7.60;;;;;;;1.79;100.00;102139.91;5047136;28;20663;-75
2022/11/27 03:30:45;;;;;;;12.17;8.13;;;;;;;1.76;100.00;102145.84;5026148;28;20580;-75
2022/11/27 03:33:11;;;;;;;13.10;7.60;;;;;;;1.76;100.00;102145.84;5043461;28;20691;-75
2022/11/27 03:35:38;;;;;;;18.47;8.30;;;;;;;1.76;100.00;102143.28;5045146;28;20203;-76
2022/11/27 03:38:04;;;;;;;12.47;7.30;;;;;;;1.78;100.00;102138.19;5031662;28;20207;-75
2022/11/27 03:40:40;;;;;;;21.17;8.77;;;;;;;1.80;100.00;102139.09;5036970;28;20196;-75
2022/11/27 03:43:14;;;;;;;16.43;8.60;;;;;;;1.80;100.00;102139.97;5046461;28;20260;-76
2022/11/27 03:45:51;;;;;;;15.40;8.23;;;;;;;1.82;100.00;102140.91;5049639;28;20287;-75
2022/11/27 03:48:26;;;;;;;16.77;7.80;;;;;;;1.83;100.00;102137.50;5049708;28;20191;-75
2022/11/27 03:51:05;;;;;;;16.00;8.97;;;;;;;1.87;100.00;102141.94;5045326;28;20513;-75
2022/11/27 03:53:42;;;;;;;14.43;8.90;;;;;;;1.91;100.00;102137.75;5049100;28;20223;-76
2022/11/27 03:56:16;;;;;;;18.77;8.90;;;;;;;1.92;100.00;102138.63;5056336;28;20191;-75
2022/11/27 03:58:47;;;;;;;19.17;8.93;;;;;;;1.92;100.00;102139.53;5045287;28;20566;-75
2022/11/27 04:01:19;;;;;;;14.87;8.63;;;;;;;1.93;100.00;102138.69;5045553;28;20215;-76
2022/11/27 04:03:46;;;;;;;14.03;8.27;;;;;;;1.94;100.00;102140.44;5046295;28;20219;-76
2022/11/27 04:06:12;;;;;;;17.03;9.53;;;;;;;1.95;100.00;102129.31;5048571;28;20278;-75
2022/11/27 04:08:39;;;;;;;16.40;8.60;;;;;;;1.97;100.00;102132.84;5041701;28;20215;-75
2022/11/27 04:11:06;;;;;;;18.87;9.00;;;;;;;1.98;100.00;102132.00;5043122;28;20381;-75
2022/11/27 04:13:32;;;;;;;15.40;7.70;;;;;;;2.00;100.00;102134.63;5048593;28;20583;-76
2022/11/27 04:16:00;;;;;;;16.90;8.37;;;;;;;2.00;100.00;102138.06;5045905;28;20209;-75
2022/11/27 04:18:30;;;;;;;15.73;8.40;;;;;;;2.02;100.00;102141.59;5047890;28;20754;-75
2022/11/27 04:20:56;;;;;;;15.73;8.03;;;;;;;2.02;100.00;102131.28;5028637;28;20192;-75
2022/11/27 04:23:23;;;;;;;13.47;7.47;;;;;;;2.06;100.00;102134.84;5058307;23;21373;-70
2022/11/27 04:25:50;;;;;;;15.03;7.37;;;;;;;2.08;100.00;102139.19;4974480;28;20206;-71
2022/11/27 04:28:16;;;;;;;15.03;7.73;;;;;;;2.10;100.00;102122.94;4990862;28;20659;-70
2022/11/27 04:30:43;;;;;;;14.93;8.60;;;;;;;2.13;100.00;102123.91;4995364;28;20205;-69
2022/11/27 04:33:10;;;;;;;15.77;8.07;;;;;;;2.16;100.00;102130.84;4977670;28;20286;-70
2022/11/27 04:35:37;;;;;;;18.30;8.37;;;;;;;2.16;100.00;102134.28;4996564;28;20193;-69
2022/11/27 04:40:33;;;;;;;18.17;8.30;;;;;;;2.18;100.00;102131.75;5038213;28;20265;-73
2022/11/27 04:42:59;;;;;;;15.90;9.07;;;;;;;2.17;100.00;102128.31;5037759;28;20198;-74
2022/11/27 04:45:26;;;;;;;18.40;8.53;;;;;;;2.19;100.00;102125.81;5034949;28;20527;-73
2022/11/27 04:47:52;;;;;;;12.63;8.00;;;;;;;2.18;100.00;102124.03;5036689;28;20196;-73
2022/11/27 04:50:18;;;;;;;17.13;9.23;;;;;;;2.17;100.00;102127.47;5038216;28;20246;-73
2022/11/27 04:52:46;;;;;;;14.13;8.00;;;;;;;2.16;100.00;102136.00;5057758;28;20273;-72
2022/11/27 04:55:12;;;;;;;15.23;8.90;;;;;;;2.15;100.00;102135.13;5055065;28;20198;-73
2022/11/27 04:57:39;;;;;;;13.03;7.63;;;;;;;2.16;100.00;102136.84;5049841;28;20198;-73
2022/11/27 05:00:07;;;;;;;16.70;8.17;;;;;;;2.18;100.00;102132.66;5054881;28;20645;-71
2022/11/27 05:02:33;;;;;;;13.47;7.87;;;;;;;2.20;100.00;102137.84;5051454;28;20684;-74
2022/11/27 05:05:00;;;;;;;16.27;9.07;;;;;;;2.21;100.00;102147.31;5055517;28;20191;-74
2022/11/27 05:07:29;;;;;;;16.37;9.07;;;;;;;2.20;100.00;102146.44;5056093;28;20202;-74
2022/11/27 05:09:57;;;;;;;15.50;8.20;;;;;;;2.20;100.00;102136.16;5054223;28;20680;-74
2022/11/27 05:12:23;;;;;;;17.13;8.10;;;;;;;2.22;100.00;102136.22;5050218;28;20209;-74
2022/11/27 05:14:50;;;;;;;15.07;8.10;;;;;;;2.19;100.00;102139.53;5058208;28;20199;-74
2022/11/27 05:17:20;;;;;;;18.77;9.37;;;;;;;2.17;100.00;102137.75;5038906;28;20691;-74
2022/11/27 05:19:46;;;;;;;18.77;9.70;;;;;;;2.14;100.00;102138.50;5055416;28;20214;-74
2022/11/27 05:22:13;;;;;;;14.77;7.80;;;;;;;2.12;100.00;102142.75;5052859;28;20745;-74
2022/11/27 05:24:39;;;;;;;16.73;7.67;;;;;;;2.12;100.00;102150.47;5059348;28;20209;-74
2022/11/27 05:27:06;;;;;;;14.97;8.63;;;;;;;2.10;100.00;102149.53;5054589;28;20199;-74
2022/11/27 05:29:33;;;;;;;16.17;8.47;;;;;;;2.10;100.00;102156.41;5056263;28;20702;-74
2022/11/27 05:31:59;;;;;;;14.60;8.47;;;;;;;2.09;100.00;102152.94;5058610;28;20200;-74
2022/11/27 05:34:26;;;;;;;14.63;8.17;;;;;;;2.10;100.00;102156.41;5043731;28;20284;-74
2022/11/27 05:36:52;;;;;;;12.07;7.00;;;;;;;2.08;100.00;102153.78;5056430;28;20217;-72
2022/11/27 05:39:18;;;;;;;13.00;8.17;;;;;;;2.10;100.00;102158.97;5058310;28;20261;-72
2022/11/27 05:41:45;;;;;;;17.67;8.50;;;;;;;2.10;100.00;102158.97;5056754;28;20202;-73
2022/11/27 05:44:15;;;;;;;20.77;9.43;;;;;;;2.08;100.00;102161.47;5058355;28;20214;-74
2022/11/27 05:46:43;;;;;;;16.67;9.30;;;;;;;2.08;100.00;102162.34;5057011;28;20203;-74
2022/11/27 05:49:11;;;;;;;18.40;9.60;;;;;;;2.09;100.00;102170.94;5060243;28;20325;-73
2022/11/27 05:51:37;;;;;;;14.87;8.33;;;;;;;2.08;100.00;102153.78;5053279;28;20206;-73
2022/11/27 05:54:04;;;;;;;16.83;8.90;;;;;;;2.11;100.00;102161.59;5053072;28;20599;-74
2022/11/27 05:56:30;;;;;;;21.50;11.57;;;;;;;2.10;100.00;102153.81;5052792;28;20588;-72
2022/11/27 05:58:57;;;;;;;22.17;10.37;;;;;;;2.08;100.00;102152.06;5057132;28;20226;-74
2022/11/27 06:01:25;;;;;;;16.07;8.97;;;;;;;2.08;100.00;102149.50;5052751;28;20210;-73
2022/11/27 06:03:51;;;;;;;16.83;8.97;;;;;;;2.07;100.00;102145.16;5053033;28;20199;-73
2022/11/27 06:06:19;;;;;;;14.57;8.07;;;;;;;2.06;100.00;102146.00;5056445;28;20214;-73
2022/11/27 06:08:47;;;;;;;13.13;8.00;;;;;;;2.06;100.00;102143.41;5054757;28;20314;-74
2022/11/27 06:11:15;;;;;;;17.40;8.77;;;;;;;2.07;100.00;102144.28;5054334;28;20306;-73
2022/11/27 06:13:42;;;;;;;14.17;7.90;;;;;;;2.04;100.00;102137.34;5048391;28;20195;-73
2022/11/27 06:16:12;;;;;;;15.93;9.60;;;;;;;2.03;100.00;102137.31;5055717;28;20590;-73
2022/11/27 06:18:39;;;;;;;19.30;8.93;;;;;;;2.02;100.00;102132.97;5055028;28;20225;-73
2022/11/27 06:21:07;;;;;;;20.37;10.00;;;;;;;1.99;100.00;102128.59;5056885;28;20244;-74
2022/11/27 06:23:33;;;;;;;20.80;9.50;;;;;;;1.97;100.00;102131.94;5055883;28;20201;-73
2022/11/27 06:26:09;;;;;;;15.80;9.13;;;;;;;1.93;100.00;102128.38;5056475;28;20211;-72
2022/11/27 06:28:36;;;;;;;18.60;9.73;;;;;;;1.91;100.00;102121.47;5055634;28;20229;-74
2022/11/27 06:31:05;;;;;;;19.67;9.33;;;;;;;1.85;100.00;102123.00;5055676;28;20223;-74
2022/11/27 06:33:32;;;;;;;16.73;9.20;;;;;;;1.81;100.00;102117.69;5062219;28;20285;-73
2022/11/27 06:35:59;;;;;;;20.23;10.47;;;;;;;1.75;100.00;102118.34;5057454;28;20535;-74
2022/11/27 06:38:26;;;;;;;17.43;8.97;;;;;;;1.69;100.00;102105.31;5060171;28;20549;-73
2022/11/27 06:40:52;;;;;;;16.67;8.77;;;;;;;1.66;100.00;102108.63;5062228;28;20194;-74
2022/11/27 06:43:18;;;;;;;19.17;13.47;;;;;;;1.62;100.00;102101.66;5061096;28;20214;-73
2022/11/27 06:45:55;;;;;;;20.30;10.13;;;;;;;1.58;100.00;102104.91;5062094;28;20207;-73
2022/11/27 06:48:21;;;;;;;15.47;9.00;;;;;;;1.55;100.00;102102.25;5053505;28;20249;-73
2022/11/27 06:50:47;;;;;;;14.60;8.70;;;;;;;1.49;100.00;102104.59;5059199;28;20227;-73
2022/11/27 06:53:15;;;;;;;15.63;8.03;;;;;;;1.47;100.00;102101.13;5061803;28;20201;-74
2022/11/27 06:55:41;;;;;;;13.33;8.50;;;;;;;1.44;100.00;102099.31;5058268;28;20252;-74
2022/11/27 06:58:08;;;;;;;15.47;7.53;;;;;;;1.38;100.00;102083.69;5057730;28;20622;-74
2022/11/27 07:00:34;;;;;;;14.80;8.43;;;;;;;1.35;100.00;102080.13;5060490;28;20202;-74
2022/11/27 07:03:00;;;;;;;17.30;8.90;;;;;;;1.32;100.00;102081.78;5060139;28;20203;-74
2022/11/27 07:05:28;;;;;;;24.90;8.10;;;;;;;1.32;100.00;102076.63;5057853;28;20218;-74
2022/11/27 07:07:55;;;;;;;16.50;8.10;;;;;;;1.31;100.00;102076.56;5052056;28;20195;-73
2022/11/27 07:10:22;;;;;;;21.97;8.50;;;;;;;1.29;100.00;102073.09;5060168;28;20412;-74
2022/11/27 07:12:49;;;;;;;19.23;9.90;;;;;;;1.23;100.00;102078.00;5056380;28;20206;-74
2022/11/27 07:15:15;;;;;;;20.80;10.17;;;;;;;1.18;100.00;102077.84;5056937;28;20551;-74
2022/11/27 07:17:42;;;;;;;16.57;9.73;;;;;;;1.16;100.00;102082.03;5061515;28;20214;-72
2022/11/27 07:20:09;;;;;;;15.13;9.23;;;;;;;1.13;100.00;102079.38;5056080;28;20215;-73
2022/11/27 07:22:35;;;;;;;19.70;8.57;;;;;;;1.14;100.00;102075.97;5056901;28;20667;-74
2022/11/27 07:25:02;;;;;;;17.03;8.20;;;;;;;1.11;100.00;102079.31;5058204;28;20285;-74
2022/11/27 07:27:30;;;;;;;14.93;7.60;;;;;;;1.06;100.00;102069.69;5057843;28;20198;-74
2022/11/27 07:29:56;;;;;;;17.07;8.77;;;;;;;1.03;100.00;102078.16;5039010;28;20611;-72
2022/11/27 07:32:23;;;;;;;21.07;8.63;;;;;;;1.02;100.00;102079.00;5061809;28;20214;-73
2022/11/27 07:34:49;;;;;;;18.07;8.63;;;;;;;1.01;100.00;102078.94;5060563;28;20288;-74
2022/11/27 07:37:15;;;;;;;17.63;8.53;;;;;;;1.02;100.00;102080.66;5059449;28;20215;-74
2022/11/27 07:39:42;;;;;;;13.30;8.20;;;;;;;1.00;100.00;102083.16;5059958;28;20230;-73
2022/11/27 07:42:08;;;;;;;19.10;8.80;;;;;;;1.00;100.00;102069.47;5052846;28;20218;-74
2022/11/27 07:44:36;;;;;;;18.37;8.93;;;;;;;0.97;100.00;102072.81;5055961;28;20378;-74
2022/11/27 07:47:02;;;;;;;14.27;8.47;;;;;;;1.04;100.00;102073.88;5055687;28;20199;-74
2022/11/27 07:49:28;;;;;;;15.63;8.63;;;;;;;1.02;100.00;102079.00;5057299;28;20222;-73
2022/11/27 07:51:55;;;;;;;18.07;9.83;;;;;;;0.99;100.00;102084.00;5052218;28;20206;-73
2022/11/27 07:54:21;;;;;;;18.87;10.30;;;;;;;1.02;100.00;102081.56;5056140;28;20196;-73
2022/11/27 07:56:48;;;;;;;16.93;9.07;;;;;;;1.07;100.00;102086.84;5055735;28;20209;-73
2022/11/27 07:59:14;;;;;;;20.23;9.80;;;;;;;1.08;100.00;102092.03;5051244;28;20218;-73
2022/11/27 08:01:43;;;;;;;19.37;11.20;;;;;;;1.12;100.00;102093.03;5052881;28;20221;-74
2022/11/27 08:04:10;;;;;;;17.70;10.10;;;;;;;1.15;100.00;102088.00;5048361;28;20211;-73
2022/11/27 08:06:36;;;;;;;14.43;9.07;;;;;;;1.19;100.00;102079.56;5051669;28;20221;-74
2022/11/27 08:09:03;;;;;;;19.07;10.27;;;;;;;1.21;100.00;102071.94;5050108;28;20265;-73
2022/11/27 08:11:34;;;;;;;17.83;9.40;;;;;;;1.22;100.00;102063.41;5053513;28;20488;-74
2022/11/27 08:14:02;;;;;;;40.20;20.77;;;;;;;1.27;100.00;102064.44;5056964;28;20644;-74
2022/11/27 08:16:29;;;;;;;23.90;11.47;;;;;;;1.35;100.00;102059.56;5058035;28;20212;-74
2022/11/27 08:18:57;;;;;;;15.30;9.07;;;;;;;1.37;100.00;102063.91;5053566;28;20587;-73
2022/11/27 08:21:24;;;;;;;15.67;8.33;;;;;;;1.43;100.00;102066.72;5055697;28;20203;-74
2022/11/27 08:23:51;;;;;;;15.80;9.03;;;;;;;1.53;100.00;102073.06;5051046;28;20195;-73
2022/11/27 08:26:17;;;;;;;21.53;10.07;;;;;;;1.60;100.00;102064.72;5052858;28;20198;-74
2022/11/27 08:28:44;;;;;;;24.47;13.17;;;;;;;1.72;100.00;102059.09;5050586;28;20219;-74
2022/11/27 08:31:13;;;;;;;29.67;16.03;;;;;;;1.75;100.00;102055.78;5057922;28;20223;-74
2022/11/27 08:33:39;;;;;;;35.33;17.83;;;;;;;1.79;100.00;102058.47;5058485;28;20198;-74
2022/11/27 08:36:09;;;;;;;38.90;18.33;;;;;;;1.88;100.00;102057.91;5059556;28;20203;-73
2022/11/27 08:38:35;;;;;;;28.83;14.87;;;;;;;1.91;100.00;102060.59;5057994;28;20732;-74
2022/11/27 08:41:04;;;;;;;34.63;15.07;;;;;;;2.02;100.00;102059.25;5057529;28;20195;-74
2022/11/27 08:43:32;;;;;;;26.07;12.97;;;;;;;2.12;100.00;102062.09;5056087;28;20666;-74
2022/11/27 08:45:59;;;;;;;24.13;11.77;;;;;;;2.14;100.00;102061.31;5058184;28;20206;-74
2022/11/27 08:48:25;;;;;;;28.53;13.80;;;;;;;2.21;100.00;102060.69;5055020;28;20230;-74
2022/11/27 08:50:52;;;;;;;26.27;13.07;;;;;;;2.29;100.00;102068.66;5057836;28;20214;-74
2022/11/27 08:53:20;;;;;;;26.53;13.90;;;;;;;2.33;100.00;102070.50;5053884;28;20721;-73
2022/11/27 08:55:47;;;;;;;30.47;14.47;;;;;;;2.40;100.00;102064.69;5054962;28;20476;-74
2022/11/27 08:58:13;;;;;;;21.97;11.77;;;;;;;2.50;100.00;102075.25;5054438;28;20206;-73
2022/11/27 09:00:40;;;;;;;27.83;11.57;;;;;;;2.51;100.00;102070.16;5055228;28;20201;-73
2022/11/27 09:03:06;;;;;;;30.13;12.13;;;;;;;2.54;100.00;102061.69;5054694;28;20199;-74
2022/11/27 09:05:33;;;;;;;22.93;12.03;;;;;;;2.60;100.00;102057.59;5053572;28;20276;-74
2022/11/27 09:08:01;;;;;;;28.50;11.33;;;;;;;2.70;100.00;102055.28;5053826;28;20195;-74
2022/11/27 09:10:29;;;;;;;20.73;11.10;;;;;;;2.80;100.00;102052.16;5053369;28;20635;-74
2022/11/27 09:12:55;;;;;;;23.30;12.73;;;;;;;2.88;100.00;102054.94;5052147;28;20629;-73
2022/11/27 09:15:22;;;;;;;20.70;11.07;;;;;;;2.93;100.00;102061.94;5055935;28;20679;-73
2022/11/27 09:17:48;;;;;;;26.63;12.27;;;;;;;2.98;100.00;102054.34;5036174;28;20205;-74
2022/11/27 09:20:14;;;;;;;21.93;12.07;;;;;;;2.99;100.00;102054.41;5057917;28;20431;-74
2022/11/27 09:22:41;;;;;;;26.13;11.47;;;;;;;3.01;100.00;102059.59;5054730;28;20214;-74
2022/11/27 09:25:09;;;;;;;29.77;12.07;;;;;;;3.06;100.00;102062.28;5053142;28;20203;-74
2022/11/27 09:27:38;;;;;;;22.87;11.23;;;;;;;3.11;100.00;102066.72;5052694;28;20200;-74
2022/11/27 09:30:07;;;;;;;27.27;11.43;;;;;;;3.17;100.00;102060.91;5056378;28;20224;-74
2022/11/27 09:32:33;;;;;;;29.57;11.60;;;;;;;3.20;100.00;102059.28;5050030;28;20222;-74
2022/11/27 09:35:00;;;;;;;24.97;11.07;;;;;;;3.21;100.00;102063.59;5046695;28;20605;-74
2022/11/27 09:37:26;;;;;;;30.87;11.53;;;;;;;3.23;100.00;102073.94;5054069;28;20746;-73
2022/11/27 09:39:52;;;;;;;28.50;10.30;;;;;;;3.31;100.00;102064.72;5055438;28;20235;-74
2022/11/27 09:42:35;;;;;;;25.03;11.43;;;;;;;3.35;100.00;102063.97;5054138;28;20987;-74
2022/11/27 09:45:07;;;;;;;25.57;11.80;;;;;;;3.40;100.00;102057.22;5051121;28;20276;-73
2022/11/27 09:47:40;;;;;;;37.37;13.03;;;;;;;3.44;100.00;102054.72;5052536;28;20212;-73
2022/11/27 09:50:12;;;;;;;29.33;12.57;;;;;;;3.49;100.00;102048.84;5035858;28;20222;-72
2022/11/27 09:52:42;;;;;;;30.33;11.20;;;;;;;3.54;100.00;102047.25;5054203;28;20203;-74
2022/11/27 09:55:16;;;;;;;29.20;12.40;;;;;;;3.62;100.00;102051.75;5054646;28;20225;-74
2022/11/27 09:57:50;;;;;;;24.57;11.53;;;;;;;3.66;100.00;102050.97;5049500;28;20643;-72
2022/11/27 10:00:19;;;;;;;29.10;11.40;;;;;;;3.73;100.00;102038.28;5055717;28;20638;-74
2022/11/27 10:02:46;;;;;;;28.93;12.67;;;;;;;3.75;100.00;102041.78;5053150;28;20199;-74
2022/11/27 10:05:17;;;;;;;27.87;12.67;;;;;;;3.83;100.00;102028.19;5051307;28;20664;-74
2022/11/27 10:08:08;;;;;;;25.93;10.93;;;;;;;3.88;100.00;102027.44;5056065;28;20685;-74
2022/11/27 10:10:40;;;;;;;31.30;12.83;;;;;;;3.92;100.00;102018.06;5057284;28;20219;-74
2022/11/27 10:13:18;;;;;;;29.17;12.03;;;;;;;4.06;100.00;102011.50;5057183;28;20213;-73
2022/11/27 10:15:54;;;;;;;35.23;12.43;;;;;;;4.13;100.00;102009.94;5053712;28;20198;-73
2022/11/27 10:18:29;;;;;;;21.47;11.53;;;;;;;4.20;100.00;102008.38;5052846;28;20575;-73
2022/11/27 10:21:04;;;;;;;27.27;12.03;;;;;;;4.19;100.00;101997.19;5056647;28;20183;-73
2022/11/27 10:23:42;;;;;;;22.57;11.27;;;;;;;4.20;100.00;101992.91;5058297;28;20209;-74
2022/11/27 10:26:15;;;;;;;33.13;12.73;;;;;;;4.22;100.00;101993.78;5059421;28;20195;-74
2022/11/27 10:28:51;;;;;;;34.80;13.40;;;;;;;4.30;100.00;102000.00;5058911;28;20517;-74
2022/11/27 10:31:26;;;;;;;23.23;12.17;;;;;;;4.32;100.00;101994.03;5057798;28;20606;-73
2022/11/27 10:33:55;;;;;;;37.17;13.17;;;;;;;4.36;100.00;101990.69;5060806;28;20210;-73
2022/11/27 10:36:28;;;;;;;29.20;12.53;;;;;;;4.45;100.00;101979.69;5059655;28;20209;-74
2022/11/27 10:38:56;;;;;;;28.37;13.17;;;;;;;4.57;100.00;101988.50;5062812;23;20264;-70
2022/11/27 10:41:28;;;;;;;35.90;12.33;;;;;;;4.55;100.00;101984.16;4961709;28;20206;-70
2022/11/27 10:43:57;;;;;;;29.97;14.03;;;;;;;4.66;100.00;101983.50;4964917;28;20830;-71
2022/11/27 10:46:28;;;;;;;36.30;12.10;;;;;;;4.71;100.00;101984.47;4963376;28;20459;-71
2022/11/27 10:48:54;;;;;;;28.13;11.83;;;;;;;4.70;100.00;101990.50;4959016;28;20218;-71
2022/11/27 10:51:25;;;;;;;27.83;11.83;;;;;;;4.66;100.00;101983.50;4957623;28;20311;-71
2022/11/27 10:53:54;;;;;;;24.67;11.57;;;;;;;4.66;100.00;101976.66;4956762;28;20217;-71
2022/11/27 10:56:40;;;;;;;27.77;10.47;;;;;;;4.71;100.00;101981.91;4959720;28;20202;-71
2022/11/27 10:59:11;;;;;;;19.77;9.30;;;;;;;4.69;100.00;101984.44;4959022;28;20321;-70
2022/11/27 11:01:44;;;;;;;28.07;10.20;;;;;;;4.71;100.00;101980.22;4961877;28;20488;-71
2022/11/27 11:04:12;;;;;;;20.03;9.33;;;;;;;4.77;100.00;101982.03;4958974;28;20557;-71
2022/11/27 11:06:42;;;;;;;25.93;9.97;;;;;;;4.77;100.00;101973.38;4941770;28;20205;-71
2022/11/27 11:09:14;;;;;;;24.23;9.83;;;;;;;4.82;100.00;101967.50;4954167;28;20279;-70
2022/11/27 11:11:41;;;;;;;20.90;9.37;;;;;;;4.90;100.00;101970.22;4952512;28;20301;-70
2022/11/27 11:14:16;;;;;;;23.93;9.07;;;;;;;4.91;100.00;101961.63;4956644;28;20728;-70
2022/11/27 11:16:44;;;;;;;19.63;9.33;;;;;;;4.96;100.00;101953.94;4956367;28;20198;-71
2022/11/27 11:19:23;;;;;;;16.17;8.30;;;;;;;4.95;100.00;101954.81;4954710;28;20597;-70
2022/11/27 11:21:49;;;;;;;25.23;9.10;;;;;;;5.04;100.00;101947.19;4957719;28;20190;-70
2022/11/27 11:24:24;;;;;;;18.40;8.13;;;;;;;5.04;100.00;101953.22;4954455;28;20199;-71
2022/11/27 11:26:54;;;;;;;22.37;8.30;;;;;;;5.06;100.00;101959.28;4958690;28;20666;-70